Terminal Aerodrome Forecast
Issued by NWS Green Bay, WI

Home | Current Version | Previous Version | Text Only | Print | Product List | Glossary Off
Versions: 1 2 3 4 5 6 7 8 9 10 11 12 13 14 15 16 17 18 19

000
FTUS43 KGRB 271707 AAC
TAFGRB
TAF AMD
KGRB 271707Z 2717/2812 27012G20KT 6SM -RA BR OVC012
      TEMPO 2717/2720 3SM -RASN OVC009
     FM272000 26013G23KT P6SM OVC014
     FM280100 25009G16KT P6SM BKN023
     FM280600 24006KT P6SM SCT030=

USA.gov is the U.S. government's official web portal to all federal, state and local government web resources and services.